Time;durP1;ratioP1;P1;durP2;ratioP2;P2;SDS_P1;SDS_P2;PMS_P1;PMS_P2;Temp;Humidity;BMP_temperature;BMP_pressure;BME280_temperature;BME280_humidity;BME280_pressure;Samples;Min_cycle;Max_cycle;Signal;HPM_P1;HPM_P2
2021/11/08 00:00:07;;;;;;;11.07;6.20;;;9.00;99.90;;;;;;5136692;27;20480;-88
2021/11/08 00:02:37;;;;;;;9.03;6.97;;;9.00;99.90;;;;;;5139974;27;20513;-88
2021/11/08 00:05:04;;;;;;;9.23;6.50;;;9.00;99.90;;;;;;5138566;27;20910;-87
2021/11/08 00:07:31;;;;;;;7.33;6.40;;;9.10;99.90;;;;;;5134429;27;20456;-88
2021/11/08 00:09:58;;;;;;;7.80;7.07;;;9.10;99.90;;;;;;5134266;27;20440;-88
2021/11/08 00:12:24;;;;;;;9.23;6.03;;;9.10;99.90;;;;;;5134078;27;20443;-88
2021/11/08 00:14:54;;;;;;;9.00;6.40;;;9.10;99.90;;;;;;5137301;27;20444;-87
2021/11/08 00:17:33;;;;;;;7.00;6.37;;;9.10;99.90;;;;;;5134787;27;20476;-88
2021/11/08 00:20:06;;;;;;;9.13;6.93;;;9.10;99.90;;;;;;5133558;27;20999;-88
2021/11/08 00:22:35;;;;;;;12.63;6.67;;;9.10;99.90;;;;;;5153268;27;20448;-88
2021/11/08 00:27:43;;;;;;;12.60;7.10;;;9.10;99.90;;;;;;5054268;28;20484;-90
2021/11/08 00:30:15;;;;;;;9.37;6.87;;;9.10;99.90;;;;;;5055708;28;20970;-90
2021/11/08 00:32:42;;;;;;;7.67;6.87;;;9.00;99.90;;;;;;5056458;28;20845;-90
2021/11/08 00:35:12;;;;;;;12.23;7.43;;;8.80;99.90;;;;;;5067593;28;20440;-89
2021/11/08 00:37:39;;;;;;;10.07;7.10;;;8.70;99.90;;;;;;5057115;28;20821;-90
2021/11/08 00:40:10;;;;;;;8.50;7.03;;;8.60;99.90;;;;;;5058831;28;20508;-90
2021/11/08 00:42:40;;;;;;;9.97;6.93;;;8.50;99.90;;;;;;5075961;28;20455;-91
2021/11/08 00:45:08;;;;;;;9.80;7.13;;;8.50;99.90;;;;;;5072087;28;20496;-90
2021/11/08 00:47:35;;;;;;;10.93;6.97;;;8.30;99.90;;;;;;5058514;28;20463;-90
2021/11/08 00:50:04;;;;;;;10.57;7.10;;;8.20;99.90;;;;;;5078465;28;20475;-89
2021/11/08 00:52:34;;;;;;;16.87;10.03;;;8.10;99.90;;;;;;5073423;28;20425;-90
2021/11/08 00:55:01;;;;;;;13.50;8.10;;;8.10;99.90;;;;;;5075818;28;20462;-89
2021/11/08 00:57:32;;;;;;;13.70;8.43;;;8.00;99.90;;;;;;5067783;28;20452;-89
2021/11/08 01:00:00;;;;;;;10.50;8.03;;;7.90;99.90;;;;;;5056812;28;20464;-89
2021/11/08 01:02:29;;;;;;;14.00;8.93;;;7.80;99.90;;;;;;5057642;28;20444;-90
2021/11/08 01:04:59;;;;;;;9.73;8.73;;;7.80;99.90;;;;;;5056456;28;20444;-90
2021/11/08 01:07:26;;;;;;;9.20;7.73;;;7.70;99.90;;;;;;5056730;28;20472;-90
2021/11/08 01:09:55;;;;;;;10.10;8.40;;;7.70;99.90;;;;;;5069793;28;20496;-89
2021/11/08 01:12:23;;;;;;;9.50;7.90;;;7.60;99.90;;;;;;5064994;28;20440;-90
2021/11/08 01:14:55;;;;;;;15.03;8.07;;;7.50;99.90;;;;;;5055206;28;20985;-89
2021/11/08 01:17:24;;;;;;;14.90;8.63;;;7.50;99.90;;;;;;5065898;28;20431;-90
2021/11/08 01:19:59;;;;;;;9.90;8.23;;;7.40;99.90;;;;;;5055845;28;20864;-90
2021/11/08 01:22:26;;;;;;;20.83;9.23;;;7.30;99.90;;;;;;5055328;28;20436;-90
2021/11/08 01:24:56;;;;;;;14.87;9.83;;;7.30;99.90;;;;;;5054301;28;20544;-90
2021/11/08 01:27:33;;;;;;;17.23;9.10;;;7.30;99.90;;;;;;5056000;28;20464;-90
2021/11/08 01:30:03;;;;;;;12.07;8.60;;;7.20;99.90;;;;;;5051977;28;20455;-89
2021/11/08 01:32:32;;;;;;;13.07;9.30;;;7.20;99.90;;;;;;5058243;28;20539;-89
2021/11/08 01:35:06;;;;;;;12.50;8.60;;;7.20;99.90;;;;;;5058474;28;20484;-89
2021/11/08 01:37:37;;;;;;;14.40;9.20;;;7.10;99.90;;;;;;5058112;28;20446;-89
2021/11/08 01:40:11;;;;;;;14.83;9.30;;;7.00;99.90;;;;;;5060953;28;20507;-89
2021/11/08 01:42:45;;;;;;;12.33;9.80;;;7.00;99.90;;;;;;5076817;28;20448;-90
2021/11/08 01:45:15;;;;;;;11.80;8.70;;;6.90;99.90;;;;;;5059068;28;20555;-90
2021/11/08 01:47:44;;;;;;;16.77;9.43;;;6.90;99.90;;;;;;5058627;28;20506;-89
2021/11/08 01:50:11;;;;;;;9.73;8.80;;;6.90;99.90;;;;;;5061487;28;20456;-89
2021/11/08 01:52:38;;;;;;;11.37;8.27;;;7.00;99.90;;;;;;5079391;28;20460;-89
2021/11/08 01:55:12;;;;;;;10.37;8.83;;;6.90;99.90;;;;;;5075359;28;20506;-89
2021/11/08 01:57:39;;;;;;;14.47;9.77;;;6.80;99.90;;;;;;5073152;28;20425;-89
2021/11/08 02:00:07;;;;;;;11.33;8.27;;;6.90;99.90;;;;;;5058300;28;21023;-90
2021/11/08 02:02:42;;;;;;;16.13;8.97;;;6.90;99.90;;;;;;5059122;28;20960;-89
2021/11/08 02:05:15;;;;;;;12.90;9.23;;;6.90;99.90;;;;;;5058126;28;20562;-90
2021/11/08 02:07:43;;;;;;;13.00;10.83;;;6.80;99.90;;;;;;5057938;28;20456;-89
2021/11/08 02:10:17;;;;;;;15.87;10.80;;;6.70;99.90;;;;;;5057748;28;20987;-89
2021/11/08 02:12:49;;;;;;;14.63;10.60;;;6.60;99.90;;;;;;5057276;28;20456;-89
2021/11/08 02:15:27;;;;;;;15.00;10.87;;;6.60;99.90;;;;;;5062402;28;20473;-89
2021/11/08 02:17:57;;;;;;;12.03;10.93;;;6.50;99.90;;;;;;5061316;28;20463;-90
2021/11/08 02:20:35;;;;;;;15.17;10.87;;;6.40;99.90;;;;;;5058083;28;20452;-90
2021/11/08 02:23:09;;;;;;;15.93;10.70;;;6.40;99.90;;;;;;5062831;28;20483;-89
2021/11/08 02:25:37;;;;;;;14.97;9.40;;;6.30;99.90;;;;;;5058364;28;20515;-89
2021/11/08 02:28:12;;;;;;;19.00;12.27;;;6.40;99.90;;;;;;5058041;28;20456;-89
2021/11/08 02:30:40;;;;;;;13.07;9.43;;;6.50;99.90;;;;;;5060628;28;20448;-90
2021/11/08 02:33:10;;;;;;;13.90;9.37;;;6.40;99.90;;;;;;5058564;28;20467;-90
2021/11/08 02:35:44;;;;;;;17.43;11.60;;;6.40;99.90;;;;;;5059205;28;20452;-89
2021/11/08 02:38:15;;;;;;;14.77;11.60;;;6.30;99.90;;;;;;5070589;28;20447;-90
2021/11/08 02:40:43;;;;;;;14.83;10.63;;;6.30;99.90;;;;;;5057859;28;20475;-90
2021/11/08 02:43:19;;;;;;;15.87;10.60;;;6.30;99.90;;;;;;5058558;28;20453;-89
2021/11/08 02:45:56;;;;;;;22.13;11.30;;;6.30;99.90;;;;;;5060824;28;20517;-89
2021/11/08 02:48:24;;;;;;;20.30;11.80;;;6.30;99.90;;;;;;5058892;28;20908;-89
2021/11/08 02:51:06;;;;;;;17.90;10.70;;;6.30;99.90;;;;;;5065095;28;20492;-89
2021/11/08 02:53:42;;;;;;;16.07;10.80;;;6.30;99.90;;;;;;5078970;28;20436;-89
2021/11/08 02:56:12;;;;;;;20.97;10.50;;;6.30;99.90;;;;;;5060408;28;20494;-89
2021/11/08 02:58:48;;;;;;;11.53;9.33;;;6.30;99.90;;;;;;5074037;28;20425;-90
2021/11/08 03:01:21;;;;;;;14.07;9.87;;;6.20;99.90;;;;;;5079603;28;20479;-89
2021/11/08 03:03:53;;;;;;;12.00;10.03;;;6.10;99.90;;;;;;5077456;28;20440;-89
2021/11/08 03:06:31;;;;;;;19.70;12.37;;;6.10;99.90;;;;;;5080309;28;20472;-90
2021/11/08 03:09:11;;;;;;;13.57;10.23;;;6.00;99.90;;;;;;5078099;28;20444;-89
2021/11/08 03:11:40;;;;;;;18.20;10.67;;;5.90;99.90;;;;;;5078104;28;20463;-89
2021/11/08 03:14:14;;;;;;;21.13;11.27;;;5.90;99.90;;;;;;5075247;28;20449;-91
2021/11/08 03:16:46;;;;;;;19.30;10.90;;;5.90;99.90;;;;;;5068804;28;20469;-90
2021/11/08 03:19:24;;;;;;;14.53;11.10;;;5.90;99.90;;;;;;5060825;28;20543;-90
2021/11/08 03:22:04;;;;;;;16.90;11.60;;;5.90;99.90;;;;;;5059808;28;20483;-90
2021/11/08 03:24:43;;;;;;;20.23;14.17;;;5.80;99.90;;;;;;5076875;28;20466;-90
2021/11/08 03:27:20;;;;;;;20.13;11.20;;;5.80;99.90;;;;;;5062929;28;20484;-90
2021/11/08 03:29:51;;;;;;;12.63;10.93;;;5.80;99.90;;;;;;5056911;28;20456;-90
2021/11/08 03:32:26;;;;;;;16.03;11.77;;;5.70;99.90;;;;;;5057758;28;20455;-90
2021/11/08 03:34:57;;;;;;;19.80;10.33;;;5.70;99.90;;;;;;5049238;28;20444;-89
2021/11/08 03:37:42;;;;;;;14.00;11.13;;;5.70;99.90;;;;;;5037224;28;20437;-90
2021/11/08 03:40:12;;;;;;;14.60;10.73;;;5.60;99.90;;;;;;5030694;28;20480;-89
2021/11/08 03:42:47;;;;;;;12.97;11.03;;;5.60;99.90;;;;;;5035948;28;20473;-90
2021/11/08 03:45:14;;;;;;;12.40;10.07;;;5.50;99.90;;;;;;5036201;28;20897;-90
2021/11/08 03:47:44;;;;;;;17.10;10.53;;;5.50;99.90;;;;;;5037074;28;20460;-90
2021/11/08 03:50:12;;;;;;;20.17;13.70;;;5.50;99.90;;;;;;5055875;28;20441;-91
2021/11/08 03:52:51;;;;;;;12.43;11.07;;;5.50;99.90;;;;;;5056884;28;20448;-90
2021/11/08 03:55:54;;;;;;;16.07;11.57;;;5.50;99.90;;;;;;5071220;28;20491;-89
2021/11/08 03:58:25;;;;;;;20.40;12.03;;;5.40;99.90;;;;;;5061332;28;20449;-90
2021/11/08 04:00:55;;;;;;;13.83;11.47;;;5.40;99.90;;;;;;5060419;28;20440;-89
2021/11/08 04:03:22;;;;;;;23.83;11.70;;;5.30;99.90;;;;;;5072607;28;20433;-89
2021/11/08 04:05:52;;;;;;;16.90;10.23;;;5.30;99.90;;;;;;5055996;28;20472;-90
2021/11/08 04:08:22;;;;;;;12.27;9.03;;;5.30;99.90;;;;;;5055816;28;20448;-90
2021/11/08 04:10:53;;;;;;;11.47;9.53;;;5.30;99.90;;;;;;5057579;28;20450;-89
2021/11/08 04:13:20;;;;;;;16.30;11.23;;;5.30;99.90;;;;;;5056626;28;20517;-89
2021/11/08 04:15:49;;;;;;;15.27;11.80;;;5.20;99.90;;;;;;5056927;28;21000;-89
2021/11/08 04:18:19;;;;;;;11.73;10.47;;;5.10;99.90;;;;;;5059364;28;20441;-90
2021/11/08 04:20:47;;;;;;;12.90;10.23;;;5.10;99.90;;;;;;5058223;28;20666;-90
2021/11/08 04:23:16;;;;;;;15.47;10.20;;;5.00;99.90;;;;;;5056841;28;20433;-90
2021/11/08 04:28:30;;;;;;;18.47;9.90;;;5.00;99.90;;;;;;5054856;28;20526;-90
2021/11/08 04:31:02;;;;;;;16.97;10.40;;;4.90;99.90;;;;;;5055390;28;20514;-89
2021/11/08 04:33:34;;;;;;;13.10;11.30;;;4.90;99.90;;;;;;5055309;28;20444;-89
2021/11/08 04:36:28;;;;;;;20.40;11.50;;;4.90;99.90;;;;;;5068335;28;20479;-89
2021/11/08 04:39:08;;;;;;;13.10;11.03;;;4.90;99.90;;;;;;5075773;28;20424;-89
2021/11/08 04:41:50;;;;;;;15.57;11.33;;;4.90;99.90;;;;;;5062323;28;20482;-90
2021/11/08 04:47:33;;;;;;;15.23;10.70;;;5.00;99.90;;;;;;5055505;28;20448;-89
2021/11/08 04:50:27;;;;;;;14.67;11.10;;;5.00;99.90;;;;;;5056709;28;20835;-90
2021/11/08 04:53:07;;;;;;;19.07;11.30;;;5.00;99.90;;;;;;5055239;28;20448;-90
2021/11/08 04:55:52;;;;;;;14.30;10.57;;;5.00;99.90;;;;;;5054711;28;20547;-90
2021/11/08 05:21:21;;;;;;;14.30;10.80;;;4.80;99.90;;;;;;5045272;28;20453;-89
2021/11/08 05:31:59;;;;;;;13.83;10.40;;;4.70;99.90;;;;;;5078525;28;20424;-89
2021/11/08 05:34:33;;;;;;;19.87;11.10;;;4.70;99.90;;;;;;5078207;28;20519;-89
2021/11/08 05:37:08;;;;;;;19.53;12.00;;;4.60;99.90;;;;;;5070611;28;20479;-87
2021/11/08 05:39:48;;;;;;;20.73;10.93;;;4.60;99.90;;;;;;5075434;28;20428;-88
2021/11/08 05:42:18;;;;;;;14.20;12.67;;;4.60;99.90;;;;;;5053911;28;20460;-88
2021/11/08 05:44:49;;;;;;;14.17;11.87;;;4.60;99.90;;;;;;5062118;28;20448;-89
2021/11/08 05:47:22;;;;;;;15.50;11.90;;;4.60;99.90;;;;;;5077641;28;20459;-88
2021/11/08 05:49:57;;;;;;;15.07;10.90;;;4.60;99.90;;;;;;5076833;28;20508;-88
2021/11/08 05:52:36;;;;;;;15.20;11.33;;;4.60;99.90;;;;;;5076295;28;20775;-88
2021/11/08 05:55:13;;;;;;;14.27;11.40;;;4.60;99.90;;;;;;5063577;22;20468;-88
2021/11/08 05:57:49;;;;;;;15.63;11.97;;;4.60;99.90;;;;;;5107545;28;20661;-90
2021/11/08 06:50:06;;;;;;;16.10;12.93;;;4.60;99.90;;;;;;5128052;27;20420;-90
2021/11/08 06:52:39;;;;;;;21.83;13.53;;;4.70;99.90;;;;;;5138425;27;20840;-90
2021/11/08 06:55:07;;;;;;;22.77;15.40;;;4.70;99.90;;;;;;5128679;27;20913;-90
2021/11/08 06:57:44;;;;;;;19.00;14.10;;;4.80;99.90;;;;;;5122916;27;20445;-90
2021/11/08 07:02:58;;;;;;;23.67;12.57;;;4.90;99.90;;;;;;5131992;27;20452;-89
2021/11/08 07:05:40;;;;;;;22.20;15.23;;;5.00;99.90;;;;;;5118754;27;20475;-89
2021/11/08 07:08:24;;;;;;;20.40;13.60;;;5.00;99.90;;;;;;5124383;27;20468;-90
2021/11/08 07:10:51;;;;;;;20.13;14.00;;;5.10;99.90;;;;;;5126140;27;20433;-90
2021/11/08 07:13:18;;;;;;;18.40;12.67;;;5.10;99.90;;;;;;5233991;22;20517;-93
2021/11/08 07:15:49;;;;;;;21.23;13.60;;;5.20;99.90;;;;;;5097751;28;20438;-94
2021/11/08 07:18:16;;;;;;;17.27;11.93;;;5.30;99.90;;;;;;5083646;28;20454;-93
2021/11/08 07:20:43;;;;;;;19.00;14.37;;;5.30;99.90;;;;;;5082303;28;20450;-94
2021/11/08 07:23:12;;;;;;;15.40;12.53;;;5.40;99.90;;;;;;5095358;28;20491;-93
2021/11/08 07:25:39;;;;;;;21.77;14.47;;;5.50;99.90;;;;;;5079806;28;20448;-94
2021/11/08 07:28:10;;;;;;;20.17;12.60;;;5.50;99.90;;;;;;5090666;28;20507;-94
2021/11/08 07:30:38;;;;;;;16.93;12.47;;;5.60;99.90;;;;;;5090388;28;20450;-91
2021/11/08 07:33:05;;;;;;;19.90;12.50;;;5.60;99.90;;;;;;5095080;28;20465;-90
2021/11/08 07:35:32;;;;;;;17.27;12.97;;;5.70;99.90;;;;;;5100156;28;20438;-91
2021/11/08 07:37:58;;;;;;;22.90;11.40;;;5.70;99.90;;;;;;5098837;28;20454;-91
2021/11/08 07:40:27;;;;;;;17.73;11.13;;;5.80;99.90;;;;;;5077803;28;20455;-91
2021/11/08 07:42:54;;;;;;;17.10;10.97;;;5.80;99.90;;;;;;5087580;28;20456;-92
2021/11/08 07:45:24;;;;;;;14.70;10.97;;;5.90;99.90;;;;;;5099791;28;20438;-91
2021/11/08 07:47:51;;;;;;;20.63;11.57;;;5.90;99.90;;;;;;5106047;28;20443;-92
2021/11/08 07:50:17;;;;;;;15.73;11.17;;;5.90;99.90;;;;;;5090949;28;20446;-92
2021/11/08 07:52:44;;;;;;;17.27;13.00;;;6.00;99.90;;;;;;5096177;28;20475;-92
2021/11/08 07:55:11;;;;;;;14.73;11.77;;;6.00;99.90;;;;;;5078757;28;20454;-92
2021/11/08 07:57:40;;;;;;;19.77;12.17;;;6.10;99.90;;;;;;5084921;28;20439;-90
2021/11/08 08:00:13;;;;;;;19.47;12.00;;;6.20;99.90;;;;;;5099256;28;20537;-90
2021/11/08 08:02:43;;;;;;;24.57;15.67;;;6.30;99.90;;;;;;5091246;28;20936;-92
2021/11/08 08:05:11;;;;;;;20.87;14.53;;;6.30;99.90;;;;;;5078543;28;20508;-92
2021/11/08 08:11:00;;;;;;;23.60;15.17;;;6.50;99.90;;;;;;5109598;28;20435;-92
2021/11/08 08:13:38;;;;;;;21.83;14.40;;;6.60;99.90;;;;;;5106518;28;20467;-92
2021/11/08 08:18:57;;;;;;;25.20;14.43;;;6.80;99.90;;;;;;5105743;28;20450;-93
2021/11/08 08:21:43;;;;;;;27.13;15.70;;;7.00;99.90;;;;;;5097350;28;20486;-94
2021/11/08 08:24:16;;;;;;;25.80;14.40;;;7.40;99.90;;;;;;5076670;28;20460;-94
2021/11/08 08:26:50;;;;;;;22.23;14.13;;;7.90;99.90;;;;;;5066692;28;20475;-92
2021/11/08 08:29:18;;;;;;;23.77;14.27;;;8.40;99.90;;;;;;5058275;28;20515;-88
2021/11/08 08:31:47;;;;;;;19.73;15.73;;;9.00;99.90;;;;;;5064603;28;20440;-87
2021/11/08 08:34:15;;;;;;;21.10;16.33;;;9.50;99.90;;;;;;5097029;28;20529;-86
2021/11/08 08:36:43;;;;;;;19.00;15.77;;;9.70;99.90;;;;;;5108978;28;20809;-91
2021/11/08 08:39:10;;;;;;;22.73;17.33;;;9.80;99.90;;;;;;5078926;28;20462;-87
2021/11/08 08:41:38;;;;;;;24.03;16.20;;;10.10;99.90;;;;;;5080616;28;20444;-88
2021/11/08 08:44:08;;;;;;;23.90;16.27;;;10.60;99.90;;;;;;5080259;28;20482;-88
2021/11/08 08:46:36;;;;;;;20.00;16.70;;;11.10;99.90;;;;;;5080237;28;20451;-89
2021/11/08 08:49:04;;;;;;;21.03;14.27;;;11.20;99.90;;;;;;5081577;28;20452;-88
2021/11/08 08:51:31;;;;;;;22.00;15.30;;;11.50;99.90;;;;;;5078122;28;20458;-88
2021/11/08 08:53:58;;;;;;;23.40;14.97;;;11.70;99.90;;;;;;5096399;28;20470;-88
2021/11/08 08:56:25;;;;;;;21.10;14.67;;;11.60;99.90;;;;;;5091766;28;20446;-88
2021/11/08 08:58:52;;;;;;;16.70;13.80;;;11.50;99.90;;;;;;5103014;28;20464;-87
2021/11/08 09:01:20;;;;;;;16.37;12.30;;;11.50;99.90;;;;;;5115364;28;20431;-88
2021/11/08 09:03:48;;;;;;;21.30;12.67;;;11.40;99.90;;;;;;5105356;28;20508;-88
2021/11/08 09:06:15;;;;;;;24.53;14.37;;;11.30;99.90;;;;;;5116883;28;20449;-89
2021/11/08 09:08:42;;;;;;;17.57;13.00;;;11.40;99.90;;;;;;5091820;28;20450;-88
2021/11/08 09:11:09;;;;;;;18.13;13.90;;;11.30;99.90;;;;;;5081758;28;20459;-88
2021/11/08 09:13:37;;;;;;;19.57;13.33;;;11.60;99.90;;;;;;5092111;28;20479;-88
2021/11/08 09:16:10;;;;;;;21.77;13.07;;;12.10;99.90;;;;;;5099019;28;20477;-88
2021/11/08 09:18:38;;;;;;;17.60;12.40;;;12.50;99.90;;;;;;5086654;28;20463;-89
2021/11/08 09:21:06;;;;;;;20.50;13.00;;;12.60;99.90;;;;;;5090793;28;20513;-88
2021/11/08 09:23:33;;;;;;;14.80;11.90;;;12.70;99.90;;;;;;5078055;28;20562;-88
2021/11/08 09:26:00;;;;;;;17.23;11.50;;;13.30;99.90;;;;;;5093639;28;20444;-89
2021/11/08 09:28:26;;;;;;;14.87;11.50;;;13.50;99.90;;;;;;5089312;28;20442;-88
2021/11/08 09:30:53;;;;;;;19.07;10.80;;;14.10;99.90;;;;;;5079331;28;20442;-87
2021/11/08 09:33:21;;;;;;;14.33;11.20;;;14.70;99.90;;;;;;5105588;28;20453;-89
2021/11/08 09:35:49;;;;;;;13.30;11.90;;;14.50;99.60;;;;;;5103767;28;20444;-88
2021/11/08 09:38:20;;;;;;;18.77;10.40;;;15.20;99.40;;;;;;5097092;28;20932;-88
2021/11/08 09:40:47;;;;;;;20.73;11.13;;;15.80;97.50;;;;;;5101031;28;20427;-89
2021/11/08 09:43:19;;;;;;;14.77;9.80;;;15.40;95.80;;;;;;5094115;28;20474;-89
2021/11/08 09:45:46;;;;;;;13.10;9.40;;;14.70;96.40;;;;;;5087354;28;20942;-89
2021/11/08 09:48:14;;;;;;;11.90;9.77;;;14.20;97.10;;;;;;5084809;28;20537;-89
2021/11/08 09:50:44;;;;;;;12.77;10.47;;;14.00;97.70;;;;;;5090972;28;20449;-89
2021/11/08 09:53:15;;;;;;;17.03;11.33;;;14.00;97.90;;;;;;5095264;28;20536;-89
2021/11/08 09:55:44;;;;;;;10.93;8.73;;;13.80;98.20;;;;;;5084136;28;20446;-87
2021/11/08 09:58:12;;;;;;;16.17;9.73;;;13.80;98.30;;;;;;5084106;28;20473;-89
2021/11/08 10:00:52;;;;;;;12.87;10.17;;;13.60;98.50;;;;;;5084999;28;20495;-88
2021/11/08 10:03:21;;;;;;;14.43;8.83;;;13.50;98.80;;;;;;5093795;28;20484;-87
2021/11/08 10:05:50;;;;;;;16.10;9.50;;;13.50;99.00;;;;;;5078920;28;20922;-87
2021/11/08 10:08:19;;;;;;;20.23;10.70;;;13.60;98.90;;;;;;5074625;28;20447;-89
2021/11/08 10:10:48;;;;;;;18.70;12.03;;;13.00;98.80;;;;;;5079250;28;20448;-88
2021/11/08 10:13:18;;;;;;;13.27;9.20;;;12.50;99.90;;;;;;5080191;28;20469;-88
2021/11/08 10:15:48;;;;;;;16.50;9.50;;;12.30;99.90;;;;;;5086103;28;20491;-87
2021/11/08 10:18:23;;;;;;;20.90;12.40;;;12.40;99.90;;;;;;5061482;28;20446;-88
2021/11/08 10:20:52;;;;;;;12.60;11.30;;;12.60;99.90;;;;;;5071533;28;20452;-89
2021/11/08 10:23:24;;;;;;;14.23;10.10;;;12.80;99.90;;;;;;5082414;28;20483;-88
2021/11/08 10:25:53;;;;;;;16.27;10.70;;;12.80;99.90;;;;;;5079214;28;20444;-88
2021/11/08 10:28:28;;;;;;;20.37;10.77;;;12.80;99.90;;;;;;5103711;28;20480;-88
2021/11/08 10:30:59;;;;;;;16.17;10.60;;;12.70;99.90;;;;;;5101970;28;20441;-88
2021/11/08 10:33:31;;;;;;;13.07;9.50;;;12.50;99.90;;;;;;5104990;28;20459;-82
2021/11/08 10:36:02;;;;;;;14.83;10.20;;;12.50;99.90;;;;;;5102670;28;20462;-83
2021/11/08 10:38:31;;;;;;;15.33;9.90;;;12.30;99.90;;;;;;5092470;28;20503;-82
2021/11/08 10:41:02;;;;;;;17.33;9.73;;;12.20;99.90;;;;;;5093424;28;20447;-83
2021/11/08 10:43:33;;;;;;;15.87;10.70;;;12.10;99.90;;;;;;5105155;28;20489;-81
2021/11/08 10:54:24;;;;;;;14.47;9.20;;;13.60;99.90;;;;;;5097592;28;20442;-90
2021/11/08 10:57:11;;;;;;;12.87;7.67;;;13.70;99.90;;;;;;5150352;22;20480;-94
2021/11/08 10:59:49;;;;;;;11.00;6.47;;;13.80;99.10;;;;;;5120790;28;20417;-93
2021/11/08 11:02:31;;;;;;;17.50;9.03;;;14.20;98.30;;;;;;5099369;28;20471;-92
2021/11/08 11:05:05;;;;;;;16.50;8.00;;;14.80;97.50;;;;;;5104320;28;20463;-93
2021/11/08 11:07:45;;;;;;;12.67;6.67;;;15.30;95.80;;;;;;5112125;28;20431;-93
2021/11/08 11:10:20;;;;;;;12.10;6.60;;;15.10;95.20;;;;;;5105392;28;20793;-92
2021/11/08 11:12:55;;;;;;;17.50;6.70;;;14.90;94.50;;;;;;5104099;28;20465;-93
2021/11/08 11:15:32;;;;;;;11.50;6.00;;;14.40;94.10;;;;;;5104029;28;20520;-91
2021/11/08 11:18:14;;;;;;;18.17;7.97;;;13.80;94.40;;;;;;5113971;28;20426;-91
2021/11/08 11:33:44;;;;;;;10.70;5.53;;;16.20;93.70;;;;;;5053965;28;20478;-92
2021/11/08 11:36:20;;;;;;;10.20;5.00;;;16.50;91.60;;;;;;5051704;28;20476;-93
2021/11/08 11:41:47;;;;;;;12.47;5.47;;;17.80;90.60;;;;;;5042457;28;20476;-91
2021/11/08 11:44:22;;;;;;;11.63;5.43;;;19.70;85.10;;;;;;5044229;28;20553;-91
2021/11/08 11:47:22;;;;;;;12.50;5.33;;;20.10;77.30;;;;;;5043700;28;20498;-92
2021/11/08 11:49:53;;;;;;;12.20;5.80;;;19.90;78.50;;;;;;5044667;28;20477;-92
2021/11/08 13:21:34;;;;;;;14.80;6.60;;;20.00;64.40;;;;;;5073585;28;20510;-90
2021/11/08 13:24:12;;;;;;;13.83;5.70;;;20.00;62.30;;;;;;5069577;28;20563;-89
2021/11/08 13:26:42;;;;;;;9.57;4.97;;;19.90;63.90;;;;;;5074015;28;20459;-89
2021/11/08 13:29:28;;;;;;;13.17;4.50;;;19.90;62.60;;;;;;5090154;28;20470;-89
2021/11/08 13:31:55;;;;;;;11.13;4.27;;;19.40;63.50;;;;;;5100835;28;20440;-89
2021/11/08 13:34:26;;;;;;;8.63;4.13;;;18.90;64.10;;;;;;5087984;28;20475;-89
2021/11/08 13:37:04;;;;;;;8.47;4.53;;;18.00;65.90;;;;;;5085280;28;20458;-88
2021/11/08 13:39:39;;;;;;;10.67;5.13;;;17.20;69.60;;;;;;5098810;28;20471;-89
2021/11/08 13:42:22;;;;;;;9.50;4.80;;;16.50;72.40;;;;;;5101608;28;20432;-89
2021/11/08 13:44:52;;;;;;;12.70;4.60;;;15.60;73.60;;;;;;5100416;28;20453;-88
2021/11/08 13:47:19;;;;;;;8.63;4.40;;;15.00;75.60;;;;;;5098233;28;20455;-90
2021/11/08 13:49:46;;;;;;;12.37;4.90;;;14.40;78.20;;;;;;5100628;28;20494;-89
2021/11/08 13:52:15;;;;;;;14.83;5.60;;;14.10;81.00;;;;;;5100422;28;20441;-89
2021/11/08 13:54:42;;;;;;;13.20;6.43;;;13.80;82.40;;;;;;5099256;28;20463;-89
2021/11/08 13:57:12;;;;;;;16.00;5.33;;;13.60;83.50;;;;;;5100722;28;20431;-90
2021/11/08 13:59:40;;;;;;;13.13;5.70;;;13.50;84.10;;;;;;5101325;28;20483;-90
2021/11/08 14:02:09;;;;;;;12.97;4.60;;;13.40;84.50;;;;;;5100577;28;20498;-90
2021/11/08 14:04:38;;;;;;;8.30;4.80;;;13.20;84.80;;;;;;5099495;28;20445;-89
2021/11/08 14:07:26;;;;;;;10.40;4.30;;;13.20;85.20;;;;;;5097606;28;20434;-90
2021/11/08 14:09:53;;;;;;;13.03;4.83;;;13.10;84.90;;;;;;5099034;28;20481;-91
2021/11/08 14:12:23;;;;;;;9.30;5.27;;;13.00;85.30;;;;;;5099427;28;20457;-90
2021/11/08 14:14:55;;;;;;;7.30;4.40;;;13.00;86.20;;;;;;5099144;28;20484;-91
2021/11/08 14:17:24;;;;;;;12.03;6.10;;;12.90;87.90;;;;;;5097103;28;20458;-90
2021/11/08 14:19:54;;;;;;;12.23;6.00;;;12.80;87.70;;;;;;5097917;28;20436;-90
2021/11/08 14:22:25;;;;;;;6.13;5.27;;;12.70;88.50;;;;;;5095473;28;20479;-90
2021/11/08 14:24:56;;;;;;;11.30;5.30;;;12.70;88.20;;;;;;5088368;28;20504;-89
2021/11/08 14:27:27;;;;;;;11.07;5.83;;;12.70;88.60;;;;;;5087579;28;20456;-91
2021/11/08 14:29:55;;;;;;;14.00;5.20;;;12.70;89.10;;;;;;5086071;28;20453;-91
2021/11/08 14:32:26;;;;;;;12.17;6.47;;;12.70;89.50;;;;;;5081049;28;20506;-90
2021/11/08 14:34:59;;;;;;;9.43;5.83;;;12.70;90.00;;;;;;5082561;28;21021;-89
2021/11/08 14:38:00;;;;;;;9.23;6.07;;;12.70;90.00;;;;;;5085352;28;20600;-90
2021/11/08 14:40:36;;;;;;;15.57;7.30;;;12.70;90.20;;;;;;5083606;28;20515;-89
2021/11/08 14:43:21;;;;;;;12.57;6.20;;;12.70;90.40;;;;;;5081105;28;20471;-90
2021/11/08 14:46:17;;;;;;;17.03;7.10;;;12.70;90.60;;;;;;5079067;28;20526;-91
2021/11/08 14:48:58;;;;;;;10.63;6.10;;;12.70;90.90;;;;;;5079298;28;20449;-92
2021/11/08 14:51:32;;;;;;;12.30;6.07;;;12.60;90.90;;;;;;5082517;28;20444;-91
2021/11/08 14:54:07;;;;;;;13.50;5.50;;;12.60;91.00;;;;;;5079782;28;20472;-91
2021/11/08 14:56:50;;;;;;;8.93;5.00;;;12.50;91.20;;;;;;5091853;28;20477;-90
2021/11/08 14:59:34;;;;;;;8.53;5.23;;;12.40;90.70;;;;;;5099115;28;20464;-90
2021/11/08 15:02:12;;;;;;;7.77;5.00;;;12.40;90.40;;;;;;5097503;28;20456;-90
2021/11/08 15:04:53;;;;;;;14.90;6.20;;;12.40;90.60;;;;;;5097234;28;20443;-90
2021/11/08 15:07:31;;;;;;;12.13;7.20;;;12.40;90.60;;;;;;5093299;28;20448;-90
2021/11/08 15:10:05;;;;;;;7.97;5.07;;;12.40;90.60;;;;;;5090835;28;20468;-90
2021/11/08 15:12:34;;;;;;;12.63;6.07;;;12.40;90.60;;;;;;5073825;28;20439;-90
2021/11/08 15:15:09;;;;;;;9.37;5.40;;;12.50;90.90;;;;;;5083231;28;20551;-90
2021/11/08 15:17:39;;;;;;;14.20;5.37;;;12.40;90.90;;;;;;5077706;28;20485;-90
2021/11/08 15:20:12;;;;;;;21.80;13.40;;;12.40;90.70;;;;;;5094918;28;20460;-90
2021/11/08 15:22:40;;;;;;;17.27;12.73;;;12.30;90.60;;;;;;5089810;28;20464;-91
2021/11/08 15:25:23;;;;;;;17.13;9.67;;;12.20;90.80;;;;;;5088735;28;20445;-89
2021/11/08 15:28:25;;;;;;;10.43;6.17;;;12.20;91.10;;;;;;5081964;28;20465;-89
2021/11/08 15:34:21;;;;;;;17.70;10.23;;;11.80;91.70;;;;;;5049512;28;20472;-90
2021/11/08 15:36:50;;;;;;;11.73;7.43;;;11.70;92.10;;;;;;5083396;28;20448;-91
2021/11/08 15:39:28;;;;;;;13.23;7.03;;;11.50;92.40;;;;;;5083214;28;20832;-91
2021/11/08 15:42:16;;;;;;;8.47;6.00;;;11.40;92.80;;;;;;5081161;28;20451;-90
2021/11/08 15:44:52;;;;;;;13.57;7.80;;;11.30;93.20;;;;;;5072901;28;20448;-90
2021/11/08 15:47:19;;;;;;;12.73;5.03;;;11.20;93.50;;;;;;5067831;28;20442;-90
2021/11/08 15:55:42;;;;;;;10.57;6.23;;;10.80;94.50;;;;;;5066697;28;20487;-91
2021/11/08 15:58:30;;;;;;;7.30;5.00;;;10.60;94.90;;;;;;5067866;28;20451;-89
2021/11/08 16:01:24;;;;;;;12.93;5.83;;;10.50;94.80;;;;;;5064215;28;20479;-90
2021/11/08 16:06:57;;;;;;;14.40;10.40;;;10.30;94.80;;;;;;5080358;28;20444;-90
2021/11/08 16:09:47;;;;;;;12.57;6.73;;;10.30;95.00;;;;;;5090492;28;20455;-89
2021/11/08 16:15:25;;;;;;;12.80;6.73;;;10.00;95.80;;;;;;5079918;28;20491;-90
2021/11/08 16:18:06;;;;;;;14.27;6.50;;;10.00;95.90;;;;;;5088124;28;20488;-91
2021/11/08 16:21:13;;;;;;;;;;;;;;;;;;;;;
2021/11/08 16:23:50;;;;;;;11.30;6.30;;;9.80;97.70;;;;;;5086750;28;20435;-87
2021/11/08 16:26:31;;;;;;;12.73;8.07;;;9.60;98.30;;;;;;5086426;28;20455;-88
2021/11/08 16:29:10;;;;;;;8.73;6.60;;;9.60;98.90;;;;;;5085672;28;20468;-88
2021/11/08 16:32:03;;;;;;;14.33;8.17;;;9.50;99.30;;;;;;5071487;28;20534;-79
2021/11/08 16:34:30;;;;;;;16.30;8.07;;;9.50;99.70;;;;;;5074081;28;20497;-79
2021/11/08 16:36:58;;;;;;;10.30;7.33;;;9.50;99.90;;;;;;5071236;28;20530;-77
2021/11/08 16:39:25;;;;;;;13.23;8.07;;;9.40;99.90;;;;;;5069787;28;20465;-78
2021/11/08 16:41:53;;;;;;;11.67;8.13;;;9.40;99.90;;;;;;5070199;28;20472;-79
2021/11/08 16:44:23;;;;;;;9.93;7.30;;;9.30;99.90;;;;;;5067836;28;20463;-78
2021/11/08 16:47:25;;;;;;;15.27;7.83;;;9.30;99.90;;;;;;5070959;28;20447;-90
2021/11/08 16:50:09;;;;;;;14.67;9.07;;;9.20;99.90;;;;;;5077025;28;20473;-91
2021/11/08 16:56:00;;;;;;;12.40;8.70;;;9.10;99.90;;;;;;5068626;28;20464;-93
2021/11/08 17:01:48;;;;;;;12.90;9.50;;;8.90;99.90;;;;;;5081802;28;20444;-90